Time;durP1;ratioP1;P1;durP2;ratioP2;P2;SDS_P1;SDS_P2;PMS_P1;PMS_P2;Temp;Humidity;BMP_temperature;BMP_pressure;BME280_temperature;BME280_humidity;BME280_pressure;Samples;Min_cycle;Max_cycle;Signal;HPM_P1;HPM_P2
2023/12/07 06:31:15;;;;;;;;;;;;;;;6.25;59.88;97178.63;4242636;27;10213;-69
2023/12/07 06:33:18;;;;;;;;;;;;;;;6.51;59.59;97172.50;4246529;27;5672;-68
2023/12/07 06:35:21;;;;;;;;;;;;;;;6.73;58.94;97171.94;4241283;27;5823;-68
2023/12/07 06:37:24;;;;;;;;;;;;;;;6.86;58.28;97164.41;4236464;27;5716;-67
2023/12/07 06:39:27;;;;;;;;;;;;;;;6.96;58.12;97170.34;4248259;27;6298;-67
2023/12/07 06:41:29;;;;;;;;;;;;;;;7.08;57.88;97162.16;4256872;27;5824;-69
2023/12/07 06:43:32;;;;;;;;;;;;;;;7.18;57.69;97165.47;4248617;27;5688;-69
2023/12/07 06:45:35;;;;;;;;;;;;;;;7.23;57.45;97153.44;4257019;27;5677;-69
2023/12/07 06:47:39;;;;;;;;;;;;;;;7.27;57.10;97162.66;4248415;27;5609;-69
2023/12/07 06:49:41;;;;;;;;;;;;;;;7.27;56.81;97175.00;4234374;27;5805;-69
2023/12/07 06:51:54;;;;;;;;;;;;;;;7.26;56.46;97178.63;4221134;28;5776;-68
2023/12/07 06:53:57;;;;;;;;;;;;;;;7.25;56.16;97184.88;4245206;27;5825;-67
2023/12/07 06:56:00;;;;;;;;;;;;;;;7.28;56.13;97181.91;4255076;27;5729;-68
2023/12/07 06:58:03;;;;;;;;;;;;;;;7.33;55.92;97171.69;4248479;27;5641;-67
2023/12/07 07:00:10;;;;;;;;;;;;;;;7.38;55.75;97182.56;4256296;27;5090;-68
2023/12/07 07:02:13;;;;;;;;;;;;;;;7.37;55.24;97174.84;4265206;27;7677;-68
2023/12/07 07:04:18;;;;;;;;;;;;;;;7.35;55.37;97177.63;4264440;27;6075;-68
2023/12/07 07:06:21;;;;;;;;;;;;;;;7.38;55.16;97192.28;4263078;27;6284;-67
2023/12/07 07:08:23;;;;;;;;;;;;;;;7.41;55.10;97191.94;4243404;27;6286;-67
2023/12/07 07:10:26;;;;;;;;;;;;;;;7.45;54.73;97194.06;4247882;27;5758;-68
2023/12/07 07:12:29;;;;;;;;;;;;;;;7.48;54.57;97204.28;4253830;27;5828;-68
2023/12/07 07:14:32;;;;;;;;;;;;;;;7.44;54.06;97184.53;4242426;27;6290;-68
2023/12/07 07:16:35;;;;;;;;;;;;;;;7.43;54.24;97185.53;4251459;27;5607;-68
2023/12/07 07:18:39;;;;;;;;;;;;;;;7.45;54.16;97185.34;4252712;27;5705;-68
2023/12/07 07:20:44;;;;;;;;;;;;;;;7.47;54.08;97186.00;4251880;27;5785;-69
2023/12/07 07:22:47;;;;;;;;;;;;;;;7.50;54.02;97176.00;4250910;27;5708;-68
2023/12/07 07:24:50;;;;;;;;;;;;;;;7.50;53.86;97183.88;4238266;27;5734;-68
2023/12/07 07:26:52;;;;;;;;;;;;;;;7.53;53.61;97191.44;4247502;27;5605;-68
2023/12/07 07:28:55;;;;;;;;;;;;;;;7.54;53.63;97182.56;4254360;27;5590;-69
2023/12/07 07:30:58;;;;;;;;;;;;;;;7.56;53.45;97191.13;4239897;27;5593;-68
2023/12/07 07:33:02;;;;;;;;;;;;;;;7.62;53.05;97194.09;4236599;28;5650;-68
2023/12/07 07:35:05;;;;;;;;;;;;;;;7.63;53.29;97182.56;4233461;28;5413;-68
2023/12/07 07:37:10;;;;;;;;;;;;;;;7.67;53.04;97187.31;4235716;28;7215;-68
2023/12/07 07:39:13;;;;;;;;;;;;;;;7.72;53.13;97192.94;4228400;27;5719;-68
2023/12/07 07:41:17;;;;;;;;;;;;;;;7.76;52.99;97196.06;4244149;27;5593;-69
2023/12/07 07:43:19;;;;;;;;;;;;;;;7.78;52.94;97189.63;4243428;27;5095;-67
2023/12/07 07:45:23;;;;;;;;;;;;;;;7.77;52.59;97181.91;4244525;27;7427;-68
2023/12/07 07:47:26;;;;;;;;;;;;;;;7.78;52.69;97183.53;4244714;27;5586;-67
2023/12/07 07:49:29;;;;;;;;;;;;;;;7.79;52.57;97179.91;4240303;27;5829;-69
2023/12/07 07:51:33;;;;;;;;;;;;;;;7.80;52.33;97171.84;4234734;28;5749;-68
2023/12/07 07:53:36;;;;;;;;;;;;;;;7.80;52.35;97174.47;4235112;28;5612;-68
2023/12/07 07:55:39;;;;;;;;;;;;;;;7.80;52.18;97176.28;4240330;27;5584;-69
2023/12/07 07:57:42;;;;;;;;;;;;;;;7.79;52.44;97159.69;4239312;27;5704;-67
2023/12/07 07:59:45;;;;;;;;;;;;;;;7.79;52.43;97164.13;4237450;27;5593;-68
2023/12/07 08:01:49;;;;;;;;;;;;;;;7.80;52.42;97156.06;4247361;27;5709;-67
2023/12/07 08:03:52;;;;;;;;;;;;;;;7.84;52.15;97156.56;4243484;27;5597;-68
2023/12/07 08:05:54;;;;;;;;;;;;;;;7.84;52.27;97157.38;4244071;27;5594;-68
2023/12/07 08:07:57;;;;;;;;;;;;;;;7.85;51.80;97159.03;4242419;27;5687;-67
2023/12/07 08:10:03;;;;;;;;;;;;;;;7.85;51.86;97152.94;4245422;27;5597;-68
2023/12/07 08:12:08;;;;;;;;;;;;;;;7.85;51.98;97142.41;4235953;27;5713;-68
2023/12/07 08:14:11;;;;;;;;;;;;;;;7.82;51.85;97138.31;4228354;28;5582;-67
2023/12/07 08:16:14;;;;;;;;;;;;;;;7.80;51.63;97134.19;4218976;28;5619;-68
2023/12/07 08:18:16;;;;;;;;;;;;;;;7.80;51.36;97142.06;4217263;28;5664;-68
2023/12/07 08:20:19;;;;;;;;;;;;;;;7.78;51.17;97137.00;4221724;28;5093;-68
2023/12/07 08:22:22;;;;;;;;;;;;;;;7.79;51.51;97129.91;4231693;28;7698;-67
2023/12/07 08:24:26;;;;;;;;;;;;;;;7.80;51.45;97131.56;4233751;28;5606;-68
2023/12/07 08:26:29;;;;;;;;;;;;;;;7.82;51.56;97138.31;4237946;27;5095;-68
2023/12/07 08:28:32;;;;;;;;;;;;;;;7.83;51.41;97139.13;4238062;27;7687;-68
2023/12/07 08:30:36;;;;;;;;;;;;;;;7.86;51.46;97136.97;4234300;28;5696;-68
2023/12/07 08:32:39;;;;;;;;;;;;;;;7.89;51.51;97117.38;4224455;28;5704;-68
2023/12/07 08:34:44;;;;;;;;;;;;;;;7.93;51.21;97094.16;4231098;28;5601;-68
2023/12/07 08:36:47;;;;;;;;;;;;;;;7.95;51.32;97103.56;4235277;28;5617;-68
2023/12/07 08:38:50;;;;;;;;;;;;;;;7.95;50.92;97103.56;4230235;28;5578;-69
2023/12/07 08:40:53;;;;;;;;;;;;;;;7.94;50.94;97109.81;4231375;28;5608;-68
2023/12/07 08:42:58;;;;;;;;;;;;;;;7.91;51.15;97104.88;4217593;28;5628;-69
2023/12/07 08:45:01;;;;;;;;;;;;;;;7.93;51.20;97110.81;4222721;28;5597;-68
2023/12/07 08:47:04;;;;;;;;;;;;;;;7.94;51.04;97120.34;4234766;28;5599;-68
2023/12/07 08:49:07;;;;;;;;;;;;;;;7.97;51.07;97124.47;4234459;28;6279;-68
2023/12/07 08:51:11;;;;;;;;;;;;;;;7.98;50.98;97137.44;4234586;28;5700;-68
2023/12/07 08:53:14;;;;;;;;;;;;;;;7.98;51.11;97128.72;4231669;28;5689;-68
2023/12/07 08:55:18;;;;;;;;;;;;;;;8.01;50.82;97125.75;4224980;28;5623;-68
2023/12/07 08:57:21;;;;;;;;;;;;;;;7.99;50.39;97118.03;4233516;28;5665;-68
2023/12/07 08:59:26;;;;;;;;;;;;;;;7.96;50.70;97097.31;4224387;28;5641;-68
2023/12/07 09:01:30;;;;;;;;;;;;;;;7.91;50.54;97089.06;4224991;28;5843;-67
2023/12/07 09:03:37;;;;;;;;;;;;;;;7.87;50.71;97093.88;4232803;28;5609;-68
2023/12/07 09:05:40;;;;;;;;;;;;;;;7.87;50.52;97095.69;4232655;28;5601;-68
2023/12/07 09:07:42;;;;;;;;;;;;;;;7.92;50.36;97090.72;4234809;28;5602;-68
2023/12/07 09:09:47;;;;;;;;;;;;;;;7.99;50.46;97096.16;4229662;27;5605;-67
2023/12/07 09:11:50;;;;;;;;;;;;;;;8.05;50.54;97096.31;4232039;28;5834;-68
2023/12/07 09:13:53;;;;;;;;;;;;;;;8.09;50.38;97094.97;4246768;27;6745;-67
2023/12/07 09:16:00;;;;;;;;;;;;;;;8.11;50.26;97092.16;4229459;28;5817;-68
2023/12/07 09:18:03;;;;;;;;;;;;;;;8.11;50.28;97087.69;4232532;28;5613;-68
2023/12/07 09:20:11;;;;;;;;;;;;;;;8.09;50.24;97087.06;4233661;28;5605;-67
2023/12/07 09:22:16;;;;;;;;;;;;;;;8.11;50.44;97084.25;4235401;27;5889;-68
2023/12/07 09:24:25;;;;;;;;;;;;;;;8.11;50.23;97074.53;4225903;28;5704;-68
2023/12/07 09:26:28;;;;;;;;;;;;;;;8.15;50.06;97070.59;4234462;28;5749;-68
2023/12/07 09:28:33;;;;;;;;;;;;;;;8.21;50.24;97073.53;4233511;28;5700;-68
2023/12/07 09:30:36;;;;;;;;;;;;;;;8.24;50.23;97083.69;4234442;28;6278;-67
2023/12/07 09:32:42;;;;;;;;;;;;;;;8.22;50.02;97091.78;4233102;28;5586;-69
2023/12/07 09:34:45;;;;;;;;;;;;;;;8.24;49.92;97099.50;4233194;28;5689;-68
2023/12/07 09:36:48;;;;;;;;;;;;;;;8.25;50.32;97109.88;4233345;28;5083;-68
2023/12/07 09:38:51;;;;;;;;;;;;;;;8.30;50.56;97099.66;4233596;28;5610;-68
2023/12/07 09:40:55;;;;;;;;;;;;;;;8.32;50.27;97096.84;4230236;28;5601;-69
2023/12/07 09:42:58;;;;;;;;;;;;;;;8.33;50.74;97088.78;4233938;28;5180;-68
2023/12/07 09:45:01;;;;;;;;;;;;;;;8.36;50.72;97082.34;4233702;28;7807;-68
2023/12/07 09:47:06;;;;;;;;;;;;;;;8.36;50.53;97077.91;4233588;28;5841;-67
2023/12/07 09:49:10;;;;;;;;;;;;;;;8.30;51.03;97072.50;4237193;27;5586;-67
2023/12/07 09:51:13;;;;;;;;;;;;;;;8.27;50.73;97075.44;4240145;27;5922;-67
2023/12/07 09:53:16;;;;;;;;;;;;;;;8.29;50.95;97076.13;4233018;27;6299;-68
2023/12/07 09:55:22;;;;;;;;;;;;;;;8.28;51.32;97075.31;4233514;27;5617;-67
2023/12/07 09:57:25;;;;;;;;;;;;;;;8.29;51.11;97076.13;4230796;27;5726;-67
2023/12/07 09:59:32;;;;;;;;;;;;;;;8.31;51.03;97076.75;4229800;28;5600;-68
2023/12/07 10:01:36;;;;;;;;;;;;;;;8.36;51.21;97075.28;4233346;28;5589;-67
2023/12/07 10:03:39;;;;;;;;;;;;;;;8.43;51.33;97070.16;4238262;27;5598;-67
2023/12/07 10:05:57;;;;;;;;;;;;;;;8.49;51.13;97066.00;4233059;27;5608;-68
2023/12/07 10:08:01;;;;;;;;;;;;;;;8.50;51.45;97072.94;4237125;27;5885;-68
2023/12/07 10:10:05;;;;;;;;;;;;;;;8.49;51.41;97058.09;4230388;27;5651;-67
2023/12/07 10:12:09;;;;;;;;;;;;;;;8.53;51.65;97057.59;4218247;27;5739;-67
2023/12/07 10:14:11;;;;;;;;;;;;;;;8.56;51.56;97057.22;4217338;28;5616;-68
2023/12/07 10:16:16;;;;;;;;;;;;;;;8.63;51.44;97063.44;4234728;27;5604;-67
2023/12/07 10:18:23;;;;;;;;;;;;;;;8.60;50.87;97061.16;4232376;27;5585;-67
2023/12/07 10:20:28;;;;;;;;;;;;;;;8.57;50.68;97064.13;4219470;27;5862;-67
2023/12/07 10:22:33;;;;;;;;;;;;;;;8.54;50.85;97064.50;4233950;28;5574;-68
2023/12/07 10:24:36;;;;;;;;;;;;;;;8.54;50.76;97059.22;4238023;27;6433;-68
2023/12/07 10:26:41;;;;;;;;;;;;;;;8.55;50.56;97066.13;4241969;27;5613;-67
2023/12/07 10:28:49;;;;;;;;;;;;;;;8.55;50.69;97076.66;4234419;27;5613;-68
2023/12/07 10:30:52;;;;;;;;;;;;;;;8.58;50.65;97067.59;4233760;27;5696;-67
2023/12/07 10:32:55;;;;;;;;;;;;;;;8.60;50.69;97073.50;4231478;28;5590;-67
2023/12/07 10:35:01;;;;;;;;;;;;;;;8.61;50.38;97065.44;4233610;28;6338;-67
2023/12/07 10:37:04;;;;;;;;;;;;;;;8.61;50.53;97054.91;4233614;28;5669;-67
2023/12/07 10:39:09;;;;;;;;;;;;;;;8.63;50.36;97062.63;4242069;27;5608;-67
2023/12/07 10:41:24;;;;;;;;;;;;;;;8.65;50.31;97068.53;4228947;27;5829;-68
2023/12/07 10:43:28;;;;;;;;;;;;;;;8.63;50.12;97063.44;4232531;27;5605;-67
2023/12/07 10:45:30;;;;;;;;;;;;;;;8.60;50.06;97058.50;4220213;28;5875;-68
2023/12/07 10:47:36;;;;;;;;;;;;;;;8.60;50.16;97063.78;4233516;28;5625;-67
2023/12/07 10:49:44;;;;;;;;;;;;;;;8.63;49.65;97060.81;4233243;28;6440;-67
2023/12/07 10:51:56;;;;;;;;;;;;;;;8.64;49.46;97048.47;4233143;28;5099;-68
2023/12/07 10:54:03;;;;;;;;;;;;;;;8.63;49.61;97045.00;4233694;28;7746;-67
2023/12/07 10:56:11;;;;;;;;;;;;;;;8.63;49.27;97047.63;4233172;27;5172;-68
2023/12/07 10:58:16;;;;;;;;;;;;;;;8.64;49.44;97053.72;4224670;27;7685;-67
2023/12/07 11:00:20;;;;;;;;;;;;;;;8.62;49.64;97051.28;4233859;28;5649;-68
2023/12/07 11:02:41;;;;;;;;;;;;;;;8.64;49.41;97043.19;4242143;27;5712;-68
2023/12/07 11:04:44;;;;;;;;;;;;;;;8.68;49.14;97040.03;4225949;27;5733;-68
2023/12/07 11:06:53;;;;;;;;;;;;;;;8.70;49.02;97038.03;4235130;27;5628;-68
2023/12/07 11:09:00;;;;;;;;;;;;;;;8.71;47.40;97030.94;4227268;27;5707;-68
2023/12/07 11:11:11;;;;;;;;;;;;;;;8.65;48.15;97029.00;4238347;27;5605;-68
2023/12/07 11:13:19;;;;;;;;;;;;;;;8.66;48.22;97030.66;4230644;27;5684;-67
2023/12/07 11:15:22;;;;;;;;;;;;;;;8.72;48.30;97041.31;4236277;28;5888;-68
2023/12/07 11:17:27;;;;;;;;;;;;;;;8.73;48.26;97040.31;4227518;27;5711;-68
2023/12/07 11:19:48;;;;;;;;;;;;;;;8.72;48.27;97046.59;4239936;27;5602;-68
2023/12/07 11:21:51;;;;;;;;;;;;;;;8.73;48.41;97037.69;4235111;27;5692;-68
2023/12/07 11:23:54;;;;;;;;;;;;;;;8.72;47.77;97038.69;4223179;28;5670;-70
2023/12/07 11:25:58;;;;;;;;;;;;;;;8.68;47.74;97033.94;4240743;27;5658;-68
2023/12/07 11:28:04;;;;;;;;;;;;;;;8.68;47.67;97031.28;4236295;28;5597;-68
2023/12/07 11:30:08;;;;;;;;;;;;;;;8.68;47.85;97039.19;4242377;27;5587;-68
2023/12/07 11:32:11;;;;;;;;;;;;;;;8.69;47.64;97036.38;4236066;27;5597;-68
2023/12/07 11:34:35;;;;;;;;;;;;;;;8.72;48.11;97038.69;4242588;27;5650;-68
2023/12/07 11:36:38;;;;;;;;;;;;;;;8.75;47.98;97042.78;4239659;27;5675;-68
2023/12/07 11:39:14;;;;;;;;;;;;;;;8.79;47.27;97035.34;4235928;27;5754;-68
2023/12/07 11:41:30;;;;;;;;;;;;;;;8.71;47.17;97028.28;4238196;27;5598;-67
2023/12/07 11:43:45;;;;;;;;;;;;;;;8.65;47.00;97015.84;4235048;28;5710;-67
2023/12/07 11:45:50;;;;;;;;;;;;;;;8.60;46.90;97011.06;4234472;27;5668;-67
2023/12/07 11:48:06;;;;;;;;;;;;;;;8.57;47.16;97011.44;4227733;27;5625;-67
2023/12/07 11:50:10;;;;;;;;;;;;;;;8.54;47.25;97006.53;4235837;27;5711;-67
2023/12/07 11:52:14;;;;;;;;;;;;;;;8.56;47.04;96991.34;4230519;27;5628;-67
2023/12/07 11:54:17;;;;;;;;;;;;;;;8.58;47.21;96986.72;4235399;27;5865;-68
2023/12/07 11:56:21;;;;;;;;;;;;;;;8.59;46.66;96983.09;4239062;27;5589;-68
2023/12/07 11:58:25;;;;;;;;;;;;;;;8.60;46.60;96984.72;4242045;27;5605;-67
2023/12/07 12:00:29;;;;;;;;;;;;;;;8.55;46.07;96976.53;4233912;27;5616;-69
2023/12/07 12:02:36;;;;;;;;;;;;;;;8.54;46.71;96977.53;4238527;27;5609;-67
2023/12/07 12:04:39;;;;;;;;;;;;;;;8.58;46.88;96978.00;4246808;27;5674;-68
2023/12/07 12:06:44;;;;;;;;;;;;;;;8.63;46.79;96963.31;4237065;27;6283;-67
2023/12/07 12:08:47;;;;;;;;;;;;;;;8.67;46.95;96969.03;4220411;28;5701;-67
2023/12/07 12:10:52;;;;;;;;;;;;;;;8.69;46.94;96973.13;4234644;27;5601;-67
2023/12/07 12:12:56;;;;;;;;;;;;;;;8.71;47.04;96973.75;4235230;27;5731;-67
2023/12/07 12:14:58;;;;;;;;;;;;;;;8.72;47.24;96970.16;4228856;28;5606;-68
2023/12/07 12:17:03;;;;;;;;;;;;;;;8.75;47.05;96968.97;4229966;27;5817;-68
2023/12/07 12:19:06;;;;;;;;;;;;;;;8.75;46.87;96977.72;4222097;28;5722;-68
2023/12/07 12:21:12;;;;;;;;;;;;;;;8.71;46.77;96972.94;4219301;28;5632;-68
2023/12/07 12:23:15;;;;;;;;;;;;;;;8.67;47.19;96961.94;4234766;28;5669;-68
2023/12/07 12:25:18;;;;;;;;;;;;;;;8.69;47.10;96961.75;4235826;28;5644;-69
2023/12/07 12:27:22;;;;;;;;;;;;;;;8.68;47.23;96960.94;4235081;28;5594;-68
2023/12/07 12:29:26;;;;;;;;;;;;;;;8.70;47.15;96968.69;4231282;27;5605;-70
2023/12/07 12:31:36;;;;;;;;;;;;;;;8.71;47.27;96965.03;4244110;27;5700;-68
2023/12/07 12:33:41;;;;;;;;;;;;;;;8.74;47.40;96962.88;4233611;27;5620;-69
2023/12/07 12:35:44;;;;;;;;;;;;;;;8.74;47.27;96952.34;4243930;27;5602;-69
2023/12/07 12:37:48;;;;;;;;;;;;;;;8.80;47.17;96947.34;4244057;27;5613;-69
2023/12/07 12:39:51;;;;;;;;;;;;;;;8.81;47.39;96939.25;4235277;28;5617;-68
2023/12/07 12:41:55;;;;;;;;;;;;;;;8.83;47.10;96931.97;4235597;28;5610;-68
2023/12/07 12:43:59;;;;;;;;;;;;;;;8.88;47.23;96934.09;4235399;28;5684;-68
2023/12/07 12:46:02;;;;;;;;;;;;;;;8.90;47.16;96937.38;4233738;27;5687;-68
2023/12/07 12:48:08;;;;;;;;;;;;;;;8.92;47.11;96930.09;4228132;27;5821;-68
2023/12/07 12:50:33;;;;;;;;;;;;;;;8.92;47.43;96930.09;4218261;28;5639;-68
2023/12/07 12:52:39;;;;;;;;;;;;;;;8.94;47.26;96920.19;4230184;28;5712;-73
2023/12/07 12:54:43;;;;;;;;;;;;;;;8.93;47.07;96911.47;4240540;27;5608;-74
2023/12/07 12:56:46;;;;;;;;;;;;;;;8.88;46.38;96919.09;4232511;28;6283;-74
2023/12/07 12:58:50;;;;;;;;;;;;;;;8.82;47.10;96926.91;4235637;27;6113;-74
2023/12/07 13:00:53;;;;;;;;;;;;;;;8.82;47.40;96926.91;4236100;28;5710;-74
2023/12/07 13:02:58;;;;;;;;;;;;;;;8.85;47.36;96918.66;4235133;27;6489;-66
2023/12/07 13:05:02;;;;;;;;;;;;;;;8.86;47.46;96915.84;4229406;27;5620;-67
2023/12/07 13:07:07;;;;;;;;;;;;;;;8.91;47.30;96910.00;4227368;27;5625;-67
2023/12/07 13:09:10;;;;;;;;;;;;;;;8.93;47.50;96918.56;4243393;27;5589;-68
2023/12/07 13:11:16;;;;;;;;;;;;;;;8.94;47.55;96917.56;4232713;28;5637;-67
2023/12/07 13:13:19;;;;;;;;;;;;;;;8.98;47.62;96919.66;4231122;27;5596;-67
2023/12/07 13:15:22;;;;;;;;;;;;;;;9.02;47.66;96912.22;4234532;27;5654;-67
2023/12/07 13:17:25;;;;;;;;;;;;;;;9.04;47.55;96903.09;4222249;27;5714;-67
2023/12/07 13:19:29;;;;;;;;;;;;;;;9.08;47.96;96902.78;4241603;27;5752;-66
2023/12/07 13:21:33;;;;;;;;;;;;;;;9.10;47.87;96898.13;4227908;27;5923;-66
2023/12/07 13:23:37;;;;;;;;;;;;;;;9.08;47.66;96898.31;4241441;27;5700;-66
2023/12/07 13:25:41;;;;;;;;;;;;;;;9.09;47.62;96891.22;4233654;27;5752;-66
2023/12/07 13:27:43;;;;;;;;;;;;;;;9.09;47.57;96891.22;4242903;27;5605;-66
2023/12/07 13:29:46;;;;;;;;;;;;;;;9.08;47.63;96882.50;4237330;27;6238;-66
2023/12/07 13:31:49;;;;;;;;;;;;;;;9.05;47.74;96875.72;4234032;28;5722;-66
2023/12/07 13:33:52;;;;;;;;;;;;;;;9.05;47.59;96881.00;4234457;28;6312;-66
2023/12/07 13:36:01;;;;;;;;;;;;;;;9.01;47.35;96863.91;4233472;27;5715;-66
2023/12/07 13:38:09;;;;;;;;;;;;;;;9.00;47.41;96857.00;4220076;27;5663;-66
2023/12/07 13:40:15;;;;;;;;;;;;;;;9.00;47.35;96856.19;4227570;27;5700;-67
2023/12/07 13:42:18;;;;;;;;;;;;;;;9.00;47.36;96853.56;4243113;27;5820;-67
2023/12/07 13:44:21;;;;;;;;;;;;;;;9.03;47.41;96842.63;4240985;27;5628;-68
2023/12/07 13:46:31;;;;;;;;;;;;;;;9.04;47.23;96842.47;4236794;27;5665;-66
2023/12/07 13:48:34;;;;;;;;;;;;;;;9.07;47.19;96843.13;4242213;27;5582;-66
2023/12/07 13:50:37;;;;;;;;;;;;;;;9.08;47.44;96837.66;4237372;27;5598;-67
2023/12/07 13:52:40;;;;;;;;;;;;;;;9.11;47.48;96824.09;4239960;27;5689;-66
2023/12/07 13:54:42;;;;;;;;;;;;;;;9.13;47.20;96826.53;4234490;27;5684;-66
2023/12/07 13:56:57;;;;;;;;;;;;;;;9.14;47.13;96821.09;4235714;27;5679;-66
2023/12/07 13:59:00;;;;;;;;;;;;;;;9.13;47.05;96813.34;4239493;27;6334;-66
2023/12/07 14:01:03;;;;;;;;;;;;;;;9.13;47.03;96814.19;4249614;27;5866;-66
2023/12/07 14:03:06;;;;;;;;;;;;;;;9.13;47.08;96814.19;4241117;27;6232;-66
2023/12/07 14:05:10;;;;;;;;;;;;;;;9.10;47.15;96813.72;4242158;27;6527;-66
2023/12/07 14:07:15;;;;;;;;;;;;;;;9.12;47.01;96809.09;4236753;27;5688;-67
2023/12/07 14:09:18;;;;;;;;;;;;;;;9.11;47.25;96803.00;4243112;27;5602;-67
2023/12/07 14:11:20;;;;;;;;;;;;;;;9.11;47.25;96797.72;4235490;27;5593;-66
2023/12/07 14:13:25;;;;;;;;;;;;;;;9.11;46.85;96800.34;4231891;27;5590;-65
2023/12/07 14:15:28;;;;;;;;;;;;;;;9.09;46.76;96794.47;4238836;27;6302;-66
2023/12/07 14:17:47;;;;;;;;;;;;;;;9.04;46.78;96788.91;4238334;27;5605;-65
2023/12/07 14:19:55;;;;;;;;;;;;;;;9.04;47.01;96799.44;4239899;27;5590;-66
2023/12/07 14:22:17;;;;;;;;;;;;;;;9.03;47.03;96795.19;4237385;27;5715;-65
2023/12/07 14:24:19;;;;;;;;;;;;;;;9.03;47.02;96795.19;4233923;27;5586;-65
2023/12/07 14:26:22;;;;;;;;;;;;;;;9.02;46.75;96793.53;4242142;27;5636;-65
2023/12/07 14:28:28;;;;;;;;;;;;;;;9.03;46.86;96787.25;4241196;27;5604;-65
2023/12/07 14:30:31;;;;;;;;;;;;;;;9.04;46.73;96794.16;4238051;27;5589;-66
2023/12/07 14:32:33;;;;;;;;;;;;;;;9.04;46.60;96788.91;4239770;27;5734;-67
2023/12/07 14:34:36;;;;;;;;;;;;;;;9.03;46.73;96785.44;4238563;27;5589;-67
2023/12/07 14:36:41;;;;;;;;;;;;;;;9.03;46.90;96787.25;4241703;27;5777;-67
2023/12/07 14:38:44;;;;;;;;;;;;;;;9.03;47.10;96779.34;4241890;27;5594;-66
2023/12/07 14:40:47;;;;;;;;;;;;;;;9.03;46.82;96789.91;4238091;27;5720;-66
2023/12/07 14:42:50;;;;;;;;;;;;;;;9.02;47.03;96789.09;4235889;27;5597;-66
2023/12/07 14:44:54;;;;;;;;;;;;;;;9.01;46.99;96789.28;4245117;27;5601;-67
2023/12/07 14:46:57;;;;;;;;;;;;;;;9.01;46.77;96792.72;4242658;27;5698;-66
2023/12/07 14:49:00;;;;;;;;;;;;;;;9.00;46.49;96785.00;4246180;27;5685;-66
2023/12/07 14:51:03;;;;;;;;;;;;;;;8.99;46.67;96775.47;4243638;27;5588;-66
2023/12/07 14:53:05;;;;;;;;;;;;;;;8.99;46.64;96770.19;4237190;27;5712;-66
2023/12/07 14:55:08;;;;;;;;;;;;;;;8.97;46.68;96764.28;4232761;27;5589;-66
2023/12/07 14:57:11;;;;;;;;;;;;;;;8.98;46.52;96761.47;4220546;27;5721;-66
2023/12/07 14:59:14;;;;;;;;;;;;;;;8.99;46.38;96764.91;4228275;27;5763;-66
2023/12/07 15:01:18;;;;;;;;;;;;;;;8.99;46.31;96765.72;4236472;28;5617;-66
2023/12/07 15:03:22;;;;;;;;;;;;;;;8.97;46.55;96759.81;4237054;28;5653;-67
2023/12/07 15:05:25;;;;;;;;;;;;;;;8.98;46.67;96752.72;4234672;27;6286;-66
2023/12/07 15:07:29;;;;;;;;;;;;;;;8.96;46.30;96747.66;4235044;27;5633;-65
2023/12/07 15:09:34;;;;;;;;;;;;;;;8.97;46.41;96759.00;4236778;28;5115;-66
2023/12/07 15:11:37;;;;;;;;;;;;;;;8.93;46.36;96753.25;4236489;27;8392;-66
2023/12/07 15:13:41;;;;;;;;;;;;;;;8.90;46.33;96756.28;4228890;27;6357;-67
2023/12/07 15:15:44;;;;;;;;;;;;;;;8.92;46.24;96764.00;4230676;27;6357;-67
2023/12/07 15:17:49;;;;;;;;;;;;;;;8.91;46.18;96755.28;4234692;27;5685;-67
2023/12/07 15:19:53;;;;;;;;;;;;;;;8.91;46.36;96759.72;4234211;27;5695;-66
2023/12/07 15:21:56;;;;;;;;;;;;;;;8.91;46.12;96738.63;4242227;27;5601;-65
2023/12/07 15:23:59;;;;;;;;;;;;;;;8.88;45.97;96739.00;4244340;27;5582;-66
2023/12/07 15:26:03;;;;;;;;;;;;;;;8.86;46.35;96746.28;4242140;27;6279;-66
2023/12/07 15:28:10;;;;;;;;;;;;;;;8.85;46.31;96745.47;4244074;27;5706;-66
2023/12/07 15:30:15;;;;;;;;;;;;;;;8.85;46.22;96740.19;4243625;27;5610;-66
2023/12/07 15:32:18;;;;;;;;;;;;;;;8.84;46.08;96754.38;4242992;27;5609;-66
2023/12/07 15:34:22;;;;;;;;;;;;;;;8.81;46.42;96757.38;4238027;27;5605;-65
2023/12/07 15:36:40;;;;;;;;;;;;;;;8.77;46.27;96747.38;4234457;27;5690;-66
2023/12/07 15:38:43;;;;;;;;;;;;;;;8.78;46.21;96760.38;4236863;27;5704;-66
2023/12/07 15:40:46;;;;;;;;;;;;;;;8.75;46.13;96766.03;4234199;28;5601;-66
2023/12/07 15:42:49;;;;;;;;;;;;;;;8.73;46.13;96762.75;4238435;27;5591;-66
2023/12/07 15:44:52;;;;;;;;;;;;;;;8.72;46.27;96761.94;4235039;27;5669;-66
2023/12/07 15:46:55;;;;;;;;;;;;;;;8.71;46.37;96760.28;4233596;27;5896;-65
2023/12/07 15:48:59;;;;;;;;;;;;;;;8.70;46.39;96756.00;4230810;27;5601;-65
2023/12/07 15:51:03;;;;;;;;;;;;;;;8.71;46.63;96757.63;4234145;27;5736;-65
2023/12/07 15:53:07;;;;;;;;;;;;;;;8.69;46.46;96754.38;4235111;27;5594;-66
2023/12/07 15:55:10;;;;;;;;;;;;;;;8.63;46.97;96760.38;4232831;28;5586;-66
2023/12/07 15:57:13;;;;;;;;;;;;;;;8.61;46.66;96759.75;4234176;27;5707;-66
2023/12/07 15:59:16;;;;;;;;;;;;;;;8.61;47.03;96751.84;4231388;28;6530;-64
2023/12/07 16:01:19;;;;;;;;;;;;;;;8.60;46.85;96747.56;4234983;28;5732;-65
2023/12/07 16:03:22;;;;;;;;;;;;;;;8.60;47.26;96744.91;4237771;27;5780;-64
2023/12/07 16:05:26;;;;;;;;;;;;;;;8.62;47.39;96739.50;4233961;27;5593;-66
2023/12/07 16:07:31;;;;;;;;;;;;;;;8.61;47.61;96738.69;4236669;27;5757;-66
2023/12/07 16:09:34;;;;;;;;;;;;;;;8.63;47.25;96739.31;4235048;27;5585;-67
2023/12/07 16:11:37;;;;;;;;;;;;;;;8.61;47.72;96735.22;4231183;27;6482;-67
2023/12/07 16:13:40;;;;;;;;;;;;;;;8.60;47.61;96723.03;4232399;27;5774;-65
2023/12/07 16:15:43;;;;;;;;;;;;;;;8.60;47.70;96723.03;4229228;27;8164;-67
2023/12/07 16:17:47;;;;;;;;;;;;;;;8.60;47.74;96718.56;4234075;27;5661;-67
2023/12/07 16:19:51;;;;;;;;;;;;;;;8.61;47.69;96720.22;4243875;27;5752;-68
2023/12/07 16:21:54;;;;;;;;;;;;;;;8.60;47.68;96717.75;4242949;27;5828;-67
2023/12/07 16:23:59;;;;;;;;;;;;;;;8.59;47.80;96719.56;4226345;28;5625;-68
2023/12/07 16:26:02;;;;;;;;;;;;;;;8.59;47.84;96724.84;4227856;27;5671;-68
2023/12/07 16:28:05;;;;;;;;;;;;;;;8.59;47.80;96734.56;4235508;28;5594;-67
2023/12/07 16:30:12;;;;;;;;;;;;;;;8.58;47.85;96725.84;4242783;27;5582;-67
2023/12/07 16:32:15;;;;;;;;;;;;;;;8.62;47.76;96710.50;4234677;27;5648;-68
2023/12/07 16:34:18;;;;;;;;;;;;;;;8.64;48.00;96697.97;4238474;27;6468;-68
2023/12/07 16:36:22;;;;;;;;;;;;;;;8.64;47.76;96690.06;4251697;27;5590;-67
2023/12/07 16:38:25;;;;;;;;;;;;;;;8.66;47.99;96680.97;4241843;27;5602;-69
2023/12/07 16:40:30;;;;;;;;;;;;;;;8.65;47.67;96679.31;4235366;27;5605;-67
2023/12/07 16:42:33;;;;;;;;;;;;;;;8.67;47.73;96685.22;4246870;27;5736;-68
2023/12/07 16:44:36;;;;;;;;;;;;;;;8.65;47.76;96676.69;4240892;27;5815;-68
2023/12/07 16:46:39;;;;;;;;;;;;;;;8.64;47.69;96675.06;4230637;27;5803;-69
2023/12/07 16:48:42;;;;;;;;;;;;;;;8.65;47.83;96675.88;4232230;27;5792;-67
2023/12/07 16:50:45;;;;;;;;;;;;;;;8.65;47.77;96681.97;4230490;27;5617;-67
2023/12/07 16:52:48;;;;;;;;;;;;;;;8.68;47.79;96681.59;4233381;27;5605;-67
2023/12/07 16:55:00;;;;;;;;;;;;;;;8.70;47.71;96674.31;4230204;27;5708;-67
2023/12/07 16:57:04;;;;;;;;;;;;;;;8.70;47.71;96674.31;4231960;27;5597;-67
2023/12/07 16:59:07;;;;;;;;;;;;;;;8.69;47.65;96677.94;4231900;27;5616;-67
2023/12/07 17:01:10;;;;;;;;;;;;;;;8.70;47.41;96676.13;4227402;27;5597;-67
2023/12/07 17:03:14;;;;;;;;;;;;;;;8.69;47.73;96683.22;4231900;27;5613;-67
2023/12/07 17:05:17;;;;;;;;;;;;;;;8.70;47.58;96676.94;4231428;27;5596;-68
2023/12/07 17:07:20;;;;;;;;;;;;;;;8.74;47.44;96666.88;4233466;28;5320;-68
2023/12/07 17:09:23;;;;;;;;;;;;;;;8.74;47.70;96665.03;4230501;27;6853;-67
2023/12/07 17:11:26;;;;;;;;;;;;;;;8.74;47.32;96669.50;4230063;27;5724;-68
2023/12/07 17:13:30;;;;;;;;;;;;;;;8.73;47.52;96673.13;4231606;27;5825;-68
2023/12/07 17:15:33;;;;;;;;;;;;;;;8.72;47.66;96674.97;4220938;28;5593;-67
2023/12/07 17:17:38;;;;;;;;;;;;;;;8.70;47.46;96673.50;4231432;28;5621;-67
2023/12/07 17:19:42;;;;;;;;;;;;;;;8.68;47.56;96684.22;4229071;27;6306;-67
2023/12/07 17:21:53;;;;;;;;;;;;;;;8.67;47.34;96687.84;4229283;28;5770;-67
2023/12/07 17:23:58;;;;;;;;;;;;;;;8.66;47.37;96693.31;4229581;28;5617;-68
2023/12/07 17:26:01;;;;;;;;;;;;;;;8.64;47.74;96701.41;4233376;28;5856;-68
2023/12/07 17:28:04;;;;;;;;;;;;;;;8.64;47.93;96708.50;4234541;27;5653;-67
2023/12/07 17:30:10;;;;;;;;;;;;;;;8.62;47.81;96716.59;4229085;27;5760;-67
2023/12/07 17:32:13;;;;;;;;;;;;;;;8.61;47.73;96719.41;4229856;27;5719;-67
2023/12/07 17:34:15;;;;;;;;;;;;;;;8.59;47.92;96713.47;4228757;27;5688;-69
2023/12/07 17:36:18;;;;;;;;;;;;;;;8.62;48.29;96724.50;4227881;27;5763;-66